Time;durP1;ratioP1;P1;durP2;ratioP2;P2;SDS_P1;SDS_P2;PMS_P1;PMS_P2;Temp;Humidity;BMP_temperature;BMP_pressure;BME280_temperature;BME280_humidity;BME280_pressure;Samples;Min_cycle;Max_cycle;Signal;HPM_P1;HPM_P2
2021/05/30 00:00:27;;;;;;;16.75;9.32;;;11.00;99.90;;;;;;5072825;28;20020;-73
2021/05/30 00:02:53;;;;;;;18.02;9.65;;;11.00;99.90;;;;;;5071351;28;20476;-73
2021/05/30 00:05:18;;;;;;;16.88;9.68;;;10.90;99.90;;;;;;5072941;28;20051;-73
2021/05/30 00:07:44;;;;;;;16.58;10.45;;;10.80;99.90;;;;;;5068430;28;20041;-73
2021/05/30 00:10:10;;;;;;;20.05;11.07;;;10.70;99.90;;;;;;5064387;28;20487;-73
2021/05/30 00:12:36;;;;;;;27.60;10.77;;;10.60;99.90;;;;;;5069019;28;20025;-73
2021/05/30 00:15:05;;;;;;;19.08;10.23;;;10.50;99.90;;;;;;5071809;28;20123;-73
2021/05/30 00:17:31;;;;;;;21.92;10.13;;;10.40;99.90;;;;;;5063958;28;20106;-73
2021/05/30 00:19:56;;;;;;;17.60;10.23;;;10.30;99.90;;;;;;5066997;28;20490;-73
2021/05/30 00:22:22;;;;;;;18.75;10.15;;;10.30;99.90;;;;;;5071822;28;20067;-73
2021/05/30 00:24:47;;;;;;;19.65;9.88;;;10.30;99.90;;;;;;5072261;28;20038;-73
2021/05/30 00:27:13;;;;;;;14.52;8.50;;;10.30;99.90;;;;;;5071569;28;20072;-73
2021/05/30 00:29:39;;;;;;;17.73;9.30;;;10.30;99.90;;;;;;5073014;28;20029;-73
2021/05/30 00:32:04;;;;;;;19.05;8.25;;;10.30;99.90;;;;;;5069874;28;20036;-73
2021/05/30 00:34:30;;;;;;;13.63;8.45;;;10.20;99.90;;;;;;5070406;28;20033;-74
2021/05/30 00:36:55;;;;;;;21.05;9.15;;;10.10;99.90;;;;;;5065223;28;20469;-73
2021/05/30 00:39:21;;;;;;;19.83;8.85;;;10.20;99.90;;;;;;5063306;28;20029;-73
2021/05/30 00:41:47;;;;;;;19.15;8.88;;;10.20;99.90;;;;;;5072484;28;20071;-74
2021/05/30 00:44:26;;;;;;;13.25;8.52;;;10.20;99.90;;;;;;5073595;28;20476;-73
2021/05/30 00:46:58;;;;;;;13.68;8.50;;;10.20;99.90;;;;;;5066326;28;20037;-73
2021/05/30 00:49:26;;;;;;;22.35;8.45;;;10.10;99.90;;;;;;5088178;28;20076;-73
2021/05/30 00:51:54;;;;;;;17.08;8.90;;;10.00;99.90;;;;;;5080762;28;20056;-74
2021/05/30 00:54:19;;;;;;;17.38;7.68;;;10.10;99.90;;;;;;5090894;28;20013;-72
2021/05/30 00:56:45;;;;;;;13.45;7.55;;;10.10;99.90;;;;;;5094016;28;20047;-73
2021/05/30 00:59:12;;;;;;;15.20;7.47;;;10.00;99.90;;;;;;5086024;28;20025;-74
2021/05/30 01:01:39;;;;;;;19.93;6.87;;;10.00;99.90;;;;;;5089844;28;20035;-72
2021/05/30 01:04:05;;;;;;;15.52;7.57;;;10.00;99.90;;;;;;5078162;28;20023;-73
2021/05/30 01:06:31;;;;;;;18.98;7.80;;;10.00;99.90;;;;;;5074298;28;20032;-73
2021/05/30 01:08:59;;;;;;;14.93;7.32;;;10.00;99.90;;;;;;5076188;28;20056;-73
2021/05/30 01:11:25;;;;;;;14.68;6.65;;;10.00;99.90;;;;;;5073123;28;20073;-73
2021/05/30 01:13:55;;;;;;;13.10;7.28;;;10.00;99.90;;;;;;5074308;28;20029;-74
2021/05/30 01:16:22;;;;;;;11.50;7.15;;;9.90;99.90;;;;;;5067909;28;20028;-73
2021/05/30 01:18:49;;;;;;;15.00;8.23;;;9.90;99.90;;;;;;5065351;28;20127;-73
2021/05/30 01:21:15;;;;;;;20.20;8.57;;;9.80;99.90;;;;;;5072305;28;20059;-73
2021/05/30 01:23:42;;;;;;;10.68;6.70;;;9.80;99.90;;;;;;5055539;28;20104;-74
2021/05/30 01:26:08;;;;;;;19.50;7.78;;;9.90;99.90;;;;;;5069919;28;20441;-73
2021/05/30 01:28:34;;;;;;;13.68;7.65;;;9.80;99.90;;;;;;5062243;28;20025;-72
2021/05/30 01:31:00;;;;;;;13.75;7.40;;;9.80;99.90;;;;;;5072956;28;20090;-74
2021/05/30 01:33:25;;;;;;;14.48;6.97;;;9.90;99.90;;;;;;5076398;28;20423;-73
2021/05/30 01:35:51;;;;;;;12.02;6.93;;;9.90;99.90;;;;;;5056814;28;20037;-73
2021/05/30 01:38:17;;;;;;;15.32;7.03;;;9.90;99.90;;;;;;5075915;28;20504;-73
2021/05/30 01:40:43;;;;;;;15.48;7.20;;;10.00;99.90;;;;;;5070256;28;20090;-73
2021/05/30 01:43:08;;;;;;;13.10;7.57;;;10.00;99.90;;;;;;5074821;28;20060;-73
2021/05/30 01:45:35;;;;;;;17.35;6.85;;;10.00;99.90;;;;;;5074200;28;20392;-73
2021/05/30 01:48:02;;;;;;;15.93;7.40;;;10.10;99.90;;;;;;5074348;28;20032;-74
2021/05/30 01:50:30;;;;;;;13.10;6.53;;;10.10;99.90;;;;;;5067140;28;20097;-72
2021/05/30 01:52:59;;;;;;;10.68;5.88;;;10.10;99.90;;;;;;5076020;28;20029;-73
2021/05/30 01:55:28;;;;;;;12.82;7.00;;;10.10;99.90;;;;;;5060948;28;20033;-74
2021/05/30 01:57:56;;;;;;;15.48;7.10;;;10.20;99.90;;;;;;5075982;28;20500;-73
2021/05/30 02:00:22;;;;;;;13.52;6.80;;;10.20;99.90;;;;;;5074596;28;20041;-73
2021/05/30 02:02:55;;;;;;;14.82;6.78;;;10.20;99.90;;;;;;5075082;28;20058;-73
2021/05/30 02:05:22;;;;;;;17.00;7.75;;;10.20;99.90;;;;;;5071467;28;20020;-73
2021/05/30 02:07:49;;;;;;;14.85;7.05;;;10.20;99.90;;;;;;5065965;28;20086;-73
2021/05/30 02:10:16;;;;;;;18.55;7.95;;;10.10;99.90;;;;;;5069483;28;20028;-73
2021/05/30 02:12:46;;;;;;;18.20;7.57;;;10.00;99.90;;;;;;5075131;28;20380;-73
2021/05/30 02:15:12;;;;;;;10.30;6.45;;;10.00;99.90;;;;;;5069860;28;20277;-73
2021/05/30 02:17:39;;;;;;;20.58;7.00;;;10.00;99.90;;;;;;5068443;28;20021;-73
2021/05/30 02:20:06;;;;;;;16.27;6.88;;;10.00;99.90;;;;;;5069801;28;20111;-74
2021/05/30 02:22:32;;;;;;;19.58;7.68;;;9.90;99.90;;;;;;5073343;28;20064;-72
2021/05/30 02:24:58;;;;;;;16.50;7.25;;;10.00;99.90;;;;;;5073061;28;20028;-73
2021/05/30 02:27:25;;;;;;;17.90;7.43;;;10.00;99.90;;;;;;5061050;28;20036;-73
2021/05/30 02:29:51;;;;;;;10.02;6.78;;;10.00;99.90;;;;;;5062944;28;20095;-73
2021/05/30 02:32:17;;;;;;;13.40;7.20;;;10.00;99.90;;;;;;5072972;28;20100;-73
2021/05/30 02:34:43;;;;;;;9.98;6.68;;;10.10;99.90;;;;;;5074747;28;20111;-73
2021/05/30 02:37:11;;;;;;;10.75;6.78;;;10.10;99.90;;;;;;5072477;28;20120;-72
2021/05/30 02:39:37;;;;;;;23.52;6.35;;;10.10;99.90;;;;;;5073694;28;20090;-73
2021/05/30 02:42:04;;;;;;;11.43;6.85;;;10.20;99.90;;;;;;5073713;28;20025;-74
2021/05/30 02:44:30;;;;;;;12.60;6.88;;;10.20;99.90;;;;;;5073175;28;20107;-74
2021/05/30 02:46:56;;;;;;;11.82;6.85;;;10.20;99.90;;;;;;5065569;28;20492;-73
2021/05/30 02:49:22;;;;;;;11.55;6.55;;;10.20;99.90;;;;;;5069269;28;20178;-73
2021/05/30 02:51:47;;;;;;;17.77;7.57;;;10.30;99.90;;;;;;5070705;28;20066;-73
2021/05/30 02:54:13;;;;;;;11.85;6.72;;;10.30;99.90;;;;;;5071203;28;20025;-74
2021/05/30 02:56:41;;;;;;;13.63;6.72;;;10.30;99.90;;;;;;5071996;28;20040;-72
2021/05/30 02:59:06;;;;;;;20.25;7.25;;;10.30;99.90;;;;;;5073956;28;20029;-72
2021/05/30 03:01:32;;;;;;;12.07;7.40;;;10.30;99.90;;;;;;5072317;28;20027;-73
2021/05/30 03:03:57;;;;;;;14.68;7.13;;;10.30;99.90;;;;;;5074319;28;20028;-72
2021/05/30 03:06:26;;;;;;;16.00;7.13;;;10.30;99.90;;;;;;5059018;28;20062;-72
2021/05/30 03:08:52;;;;;;;12.15;6.85;;;10.30;99.90;;;;;;5072237;28;20040;-72
2021/05/30 03:11:19;;;;;;;13.15;7.25;;;10.30;99.90;;;;;;5065018;28;20025;-72
2021/05/30 03:13:45;;;;;;;16.33;6.87;;;10.30;99.90;;;;;;5069933;28;20040;-73
2021/05/30 03:16:11;;;;;;;14.35;7.80;;;10.30;99.90;;;;;;5073969;28;20020;-73
2021/05/30 03:18:37;;;;;;;12.52;7.80;;;10.30;99.90;;;;;;5063420;28;20033;-72
2021/05/30 03:21:02;;;;;;;11.13;7.47;;;10.30;99.90;;;;;;5073838;28;20037;-72
2021/05/30 03:23:28;;;;;;;15.35;7.75;;;10.20;99.90;;;;;;5073264;28;20064;-72
2021/05/30 03:25:54;;;;;;;16.83;7.20;;;10.20;99.90;;;;;;5060711;28;20556;-73
2021/05/30 03:28:19;;;;;;;10.75;6.72;;;10.00;99.90;;;;;;5068079;28;20106;-72
2021/05/30 03:30:45;;;;;;;15.82;7.63;;;9.90;99.90;;;;;;5072433;28;20051;-73
2021/05/30 03:33:11;;;;;;;13.70;7.00;;;9.90;99.90;;;;;;5073093;28;20036;-74
2021/05/30 03:35:37;;;;;;;17.02;7.35;;;9.80;99.90;;;;;;5067873;28;20566;-72
2021/05/30 03:38:06;;;;;;;11.05;6.80;;;9.80;99.90;;;;;;5073630;28;20028;-74
2021/05/30 03:40:43;;;;;;;15.82;7.15;;;9.70;99.90;;;;;;5072964;28;20517;-72
2021/05/30 03:43:09;;;;;;;20.37;7.50;;;9.80;99.90;;;;;;5073611;28;20481;-72
2021/05/30 03:45:34;;;;;;;20.55;7.35;;;9.80;99.90;;;;;;5072750;28;20036;-72
2021/05/30 03:48:00;;;;;;;18.80;8.10;;;9.70;99.90;;;;;;5074408;28;20047;-74
2021/05/30 03:50:26;;;;;;;25.25;7.22;;;9.70;99.90;;;;;;5074080;28;20032;-73
2021/05/30 03:52:52;;;;;;;16.65;7.95;;;9.70;99.90;;;;;;5074972;28;20380;-75
2021/05/30 03:55:19;;;;;;;14.45;7.60;;;9.70;99.90;;;;;;5073927;28;20372;-73
2021/05/30 03:57:45;;;;;;;12.07;7.47;;;9.80;99.90;;;;;;5075917;28;20024;-73
2021/05/30 04:00:17;;;;;;;17.38;7.75;;;9.90;99.90;;;;;;5072045;28;20067;-72
2021/05/30 04:02:43;;;;;;;11.32;7.45;;;10.00;99.90;;;;;;5069506;28;20032;-72
2021/05/30 04:05:10;;;;;;;15.05;6.47;;;10.00;99.90;;;;;;5073158;28;20071;-72
2021/05/30 04:07:36;;;;;;;11.23;7.57;;;10.00;99.90;;;;;;5073984;28;20029;-72
2021/05/30 04:10:07;;;;;;;17.40;7.68;;;10.10;99.90;;;;;;5071253;28;20388;-72
2021/05/30 04:12:33;;;;;;;15.82;6.38;;;10.00;99.90;;;;;;5065735;28;20039;-72
2021/05/30 04:14:59;;;;;;;14.15;8.25;;;10.10;99.90;;;;;;5070630;28;20023;-72
2021/05/30 04:17:25;;;;;;;17.00;7.47;;;10.10;99.90;;;;;;5071345;28;20460;-72
2021/05/30 04:19:50;;;;;;;19.55;8.00;;;10.00;99.90;;;;;;5071141;28;20031;-72
2021/05/30 04:22:16;;;;;;;15.00;7.38;;;10.00;99.90;;;;;;5053998;28;20044;-72
2021/05/30 04:24:41;;;;;;;15.05;6.90;;;10.00;99.90;;;;;;5067432;28;20043;-72
2021/05/30 04:27:07;;;;;;;18.20;7.60;;;10.00;99.90;;;;;;5065071;28;20017;-73
2021/05/30 04:29:33;;;;;;;12.68;7.60;;;10.00;99.90;;;;;;5069474;28;20472;-73
2021/05/30 04:32:02;;;;;;;14.15;6.88;;;10.10;99.90;;;;;;5072307;28;20037;-72
2021/05/30 04:34:27;;;;;;;17.08;7.05;;;10.20;99.90;;;;;;5059718;28;20045;-72
2021/05/30 04:36:53;;;;;;;16.17;7.25;;;10.10;99.90;;;;;;5058800;28;20376;-73
2021/05/30 04:39:18;;;;;;;13.45;6.95;;;10.10;99.90;;;;;;5070763;28;20056;-73
2021/05/30 04:41:44;;;;;;;16.77;7.45;;;10.10;99.90;;;;;;5072396;28;20377;-73
2021/05/30 04:44:10;;;;;;;12.40;6.40;;;10.10;99.90;;;;;;5071823;28;20040;-72
2021/05/30 04:46:35;;;;;;;20.95;7.20;;;10.10;99.90;;;;;;5058596;28;20029;-73
2021/05/30 04:49:01;;;;;;;11.20;7.28;;;10.10;99.90;;;;;;5057717;28;20032;-73
2021/05/30 04:51:26;;;;;;;13.63;7.05;;;10.20;99.90;;;;;;5070710;28;20036;-73
2021/05/30 04:53:54;;;;;;;16.15;7.85;;;10.20;99.90;;;;;;5071926;28;20376;-75
2021/05/30 04:56:21;;;;;;;;;;;10.30;99.90;;;;;;5070290;28;20495;-73
2021/05/30 04:58:47;;;;;;;16.10;7.53;;;10.30;99.90;;;;;;5070582;28;19909;-73
2021/05/30 05:01:13;;;;;;;12.45;7.30;;;10.40;99.90;;;;;;5069017;28;20039;-73
2021/05/30 05:03:39;;;;;;;12.15;7.30;;;10.40;99.90;;;;;;5056728;28;20037;-72
2021/05/30 05:06:05;;;;;;;15.52;7.68;;;10.40;99.90;;;;;;5072071;28;20036;-72
2021/05/30 05:08:31;;;;;;;18.00;7.70;;;10.50;99.90;;;;;;5075071;28;20118;-72
2021/05/30 05:10:56;;;;;;;12.65;8.20;;;10.50;99.90;;;;;;5075688;28;20032;-72
2021/05/30 05:13:22;;;;;;;15.68;6.60;;;10.50;99.90;;;;;;5068866;28;20467;-72
2021/05/30 05:15:51;;;;;;;15.48;8.30;;;10.50;99.90;;;;;;5066895;28;20049;-72
2021/05/30 05:18:23;;;;;;;15.73;7.88;;;10.60;99.90;;;;;;5074309;28;20028;-72
2021/05/30 05:20:50;;;;;;;19.50;7.53;;;10.70;99.90;;;;;;5067058;28;20021;-72
2021/05/30 05:23:18;;;;;;;16.00;8.15;;;10.80;99.90;;;;;;5062111;28;20049;-72
2021/05/30 05:25:44;;;;;;;20.50;7.95;;;10.90;99.90;;;;;;5070067;28;20381;-73
2021/05/30 05:28:10;;;;;;;15.35;7.47;;;11.00;99.90;;;;;;5075529;28;20415;-73
2021/05/30 05:30:36;;;;;;;11.38;6.93;;;11.00;99.90;;;;;;5074936;28;20097;-73
2021/05/30 05:33:02;;;;;;;11.75;7.38;;;11.20;99.90;;;;;;5065617;28;20028;-72
2021/05/30 05:35:28;;;;;;;16.98;7.70;;;11.30;99.90;;;;;;5086542;28;20021;-73
2021/05/30 05:37:58;;;;;;;22.25;7.68;;;11.40;99.90;;;;;;5071108;28;20037;-72
2021/05/30 05:40:25;;;;;;;13.43;7.63;;;11.20;99.90;;;;;;5075217;28;20024;-73
2021/05/30 05:42:52;;;;;;;12.35;7.32;;;11.10;99.90;;;;;;5062256;28;20033;-73
2021/05/30 05:45:18;;;;;;;15.00;7.53;;;11.00;99.90;;;;;;5067823;28;20097;-72
2021/05/30 05:47:44;;;;;;;17.30;7.55;;;11.00;99.90;;;;;;5075571;28;20472;-73
2021/05/30 05:50:12;;;;;;;16.70;7.93;;;11.00;99.90;;;;;;5073601;28;20115;-73
2021/05/30 05:52:38;;;;;;;13.32;7.43;;;11.10;99.90;;;;;;5072078;28;20127;-73
2021/05/30 05:55:08;;;;;;;21.83;9.73;;;11.10;99.90;;;;;;5067860;28;20448;-73
2021/05/30 05:57:38;;;;;;;13.68;7.05;;;11.10;99.90;;;;;;5064137;28;20120;-73
2021/05/30 06:00:06;;;;;;;14.30;7.28;;;11.20;99.90;;;;;;5075044;28;20067;-72
2021/05/30 06:02:32;;;;;;;14.93;7.95;;;11.40;99.90;;;;;;5067344;28;20025;-73
2021/05/30 06:04:57;;;;;;;15.15;7.90;;;11.50;99.90;;;;;;5068844;28;20461;-73
2021/05/30 06:07:23;;;;;;;14.48;7.00;;;12.30;99.90;;;;;;5071779;28;20066;-72
2021/05/30 06:09:51;;;;;;;19.65;6.70;;;14.40;99.90;;;;;;5074381;28;20031;-73
2021/05/30 06:12:16;;;;;;;13.50;6.75;;;15.70;99.90;;;;;;5073461;28;20065;-73
2021/05/30 06:14:42;;;;;;;14.90;6.80;;;15.60;99.90;;;;;;5075586;28;20028;-73
2021/05/30 06:17:07;;;;;;;15.85;6.85;;;15.20;99.90;;;;;;5065188;28;20020;-73
2021/05/30 06:19:33;;;;;;;14.90;7.32;;;15.10;99.90;;;;;;5074884;28;20025;-74
2021/05/30 06:21:59;;;;;;;16.27;7.57;;;15.20;99.90;;;;;;5068977;28;20024;-74
2021/05/30 06:24:25;;;;;;;15.68;7.25;;;15.50;99.90;;;;;;5066455;28;20035;-74
2021/05/30 06:26:57;;;;;;;10.07;6.50;;;16.20;99.90;;;;;;5065682;28;20043;-74
2021/05/30 06:29:22;;;;;;;11.30;7.10;;;17.40;99.90;;;;;;5072688;28;20563;-74
2021/05/30 06:31:48;;;;;;;15.63;6.43;;;18.60;99.90;;;;;;5071634;28;20111;-74
2021/05/30 06:34:17;;;;;;;14.88;6.40;;;19.90;99.90;;;;;;5071942;28;20025;-73
2021/05/30 06:36:47;;;;;;;11.88;6.63;;;21.00;99.90;;;;;;5069158;28;20051;-72
2021/05/30 06:39:13;;;;;;;17.95;6.47;;;21.60;99.90;;;;;;5075710;28;20444;-72
2021/05/30 06:41:38;;;;;;;11.95;6.25;;;22.00;99.90;;;;;;5074449;28;20060;-73
2021/05/30 06:44:05;;;;;;;13.25;5.97;;;22.50;98.60;;;;;;5075735;28;20040;-73
2021/05/30 06:46:32;;;;;;;11.95;5.93;;;22.80;98.40;;;;;;5077202;28;20111;-75
2021/05/30 06:48:57;;;;;;;12.32;8.18;;;22.40;98.10;;;;;;5071374;28;20040;-74
2021/05/30 06:51:28;;;;;;;10.82;5.97;;;22.00;98.60;;;;;;5072761;28;20037;-74
2021/05/30 06:53:55;;;;;;;13.40;6.13;;;21.20;99.00;;;;;;5077739;28;20059;-74
2021/05/30 06:56:20;;;;;;;14.57;7.50;;;19.70;99.90;;;;;;5076398;28;20020;-74
2021/05/30 06:58:46;;;;;;;12.38;6.50;;;18.30;99.90;;;;;;5069011;28;20033;-75
2021/05/30 07:01:12;;;;;;;14.77;6.55;;;17.30;99.90;;;;;;5076148;28;20031;-75
2021/05/30 07:03:38;;;;;;;12.30;7.35;;;17.00;99.90;;;;;;5073203;28;20027;-74
2021/05/30 07:06:05;;;;;;;12.45;6.70;;;17.90;99.90;;;;;;5074460;28;20032;-74
2021/05/30 07:08:30;;;;;;;12.32;7.63;;;19.10;99.90;;;;;;5071766;28;20036;-74
2021/05/30 07:10:56;;;;;;;12.10;6.53;;;19.50;99.90;;;;;;5070745;28;20021;-73
2021/05/30 07:13:22;;;;;;;16.42;6.95;;;20.10;99.90;;;;;;5067378;28;20468;-73
2021/05/30 07:15:52;;;;;;;14.43;6.18;;;21.00;99.90;;;;;;5073793;28;20035;-74
2021/05/30 07:18:22;;;;;;;14.50;7.05;;;21.30;99.80;;;;;;5073297;28;20016;-74
2021/05/30 07:20:49;;;;;;;16.15;6.97;;;21.00;99.90;;;;;;5067882;28;20029;-74
2021/05/30 07:23:16;;;;;;;10.57;5.82;;;21.30;99.90;;;;;;5072784;28;20044;-74
2021/05/30 07:25:42;;;;;;;15.32;7.15;;;21.50;99.90;;;;;;5073341;28;20074;-74
2021/05/30 07:28:08;;;;;;;17.00;7.47;;;21.00;99.90;;;;;;5075239;28;20028;-73
2021/05/30 07:30:35;;;;;;;17.08;7.72;;;20.70;99.90;;;;;;5074103;28;20039;-74
2021/05/30 07:33:03;;;;;;;11.75;6.97;;;20.10;99.90;;;;;;5073183;28;20020;-75
2021/05/30 07:35:33;;;;;;;14.55;5.85;;;19.60;99.90;;;;;;5082886;28;20374;-77
2021/05/30 07:37:59;;;;;;;15.70;7.55;;;19.50;99.90;;;;;;5067855;28;20143;-71
2021/05/30 07:40:26;;;;;;;16.85;8.75;;;19.10;99.90;;;;;;5064169;28;20063;-72
2021/05/30 07:42:51;;;;;;;9.10;6.88;;;18.70;99.90;;;;;;5066522;28;20051;-73
2021/05/30 07:45:18;;;;;;;14.90;7.55;;;18.10;99.90;;;;;;5070658;28;20024;-74
2021/05/30 07:47:45;;;;;;;18.60;8.98;;;17.70;99.90;;;;;;5072824;28;20043;-73
2021/05/30 07:50:11;;;;;;;14.48;6.88;;;17.10;99.90;;;;;;5073419;28;20437;-73
2021/05/30 07:52:37;;;;;;;12.18;6.68;;;16.90;99.90;;;;;;5072710;28;20056;-74
2021/05/30 07:55:04;;;;;;;13.45;7.28;;;17.00;99.90;;;;;;5068365;28;20078;-75
2021/05/30 07:57:30;;;;;;;9.82;6.03;;;17.20;99.90;;;;;;5059263;28;20035;-74
2021/05/30 07:59:57;;;;;;;9.95;6.28;;;17.20;99.90;;;;;;5065410;28;20025;-73
2021/05/30 08:02:22;;;;;;;12.57;6.72;;;17.90;99.90;;;;;;5070739;28;20021;-74
2021/05/30 08:04:48;;;;;;;12.45;7.32;;;18.60;99.90;;;;;;5074893;28;20059;-74
2021/05/30 08:07:14;;;;;;;10.32;6.68;;;18.90;99.90;;;;;;5069428;28;20461;-74
2021/05/30 08:09:39;;;;;;;15.32;7.03;;;19.10;99.90;;;;;;5067378;28;20480;-72
2021/05/30 08:12:05;;;;;;;16.58;7.65;;;19.50;99.90;;;;;;5073783;28;20480;-73
2021/05/30 08:14:31;;;;;;;13.15;7.68;;;18.90;99.90;;;;;;5071283;28;20021;-73
2021/05/30 08:16:58;;;;;;;14.48;6.85;;;18.10;99.90;;;;;;5075922;28;20074;-73
2021/05/30 08:19:24;;;;;;;9.38;5.80;;;18.20;99.90;;;;;;5072408;28;20112;-73
2021/05/30 08:21:50;;;;;;;10.85;6.45;;;18.70;99.90;;;;;;5069828;28;20036;-72
2021/05/30 08:24:16;;;;;;;8.55;6.90;;;18.50;99.90;;;;;;5071149;28;20043;-72
2021/05/30 08:26:42;;;;;;;15.93;6.22;;;19.30;99.90;;;;;;5071878;28;20084;-73
2021/05/30 08:29:08;;;;;;;14.15;6.75;;;19.80;99.90;;;;;;5070504;28;20055;-74
2021/05/30 08:31:34;;;;;;;11.15;6.35;;;20.40;99.90;;;;;;5071332;28;20123;-73
2021/05/30 08:33:59;;;;;;;12.23;6.38;;;20.20;99.90;;;;;;5072224;28;20091;-73
2021/05/30 08:36:29;;;;;;;12.05;6.00;;;20.30;99.90;;;;;;5072599;28;20021;-74
2021/05/30 08:38:55;;;;;;;12.07;7.00;;;20.60;99.90;;;;;;5072621;28;20078;-75
2021/05/30 08:41:21;;;;;;;11.15;6.70;;;21.30;99.90;;;;;;5075555;28;20464;-73
2021/05/30 08:43:47;;;;;;;10.98;6.30;;;21.60;99.80;;;;;;5076999;28;20032;-73
2021/05/30 08:46:13;;;;;;;9.98;6.78;;;21.10;99.90;;;;;;5075845;28;20380;-73
2021/05/30 08:48:38;;;;;;;14.73;7.05;;;21.00;99.90;;;;;;5076318;28;20055;-73
2021/05/30 08:51:05;;;;;;;9.55;6.20;;;21.20;99.90;;;;;;5068876;28;20111;-73
2021/05/30 08:53:34;;;;;;;12.52;5.97;;;21.80;99.90;;;;;;5075570;28;20115;-73
2021/05/30 08:56:01;;;;;;;9.95;5.32;;;22.10;99.90;;;;;;5075784;28;20071;-73
2021/05/30 08:58:46;;;;;;;10.55;5.57;;;22.50;99.20;;;;;;5075026;28;20036;-73
2021/05/30 09:01:14;;;;;;;15.20;6.90;;;23.10;98.60;;;;;;5077360;28;20032;-73
2021/05/30 09:06:32;;;;;;;8.63;6.20;;;23.10;97.40;;;;;;5074178;28;20039;-75
2021/05/30 09:08:58;;;;;;;5.65;4.80;;;23.00;97.80;;;;;;5071800;28;20032;-75
2021/05/30 09:11:36;;;;;;;6.60;5.32;;;23.00;98.30;;;;;;5076275;28;20512;-74
2021/05/30 09:14:04;;;;;;;15.65;7.05;;;23.10;98.40;;;;;;5056518;28;20037;-73
2021/05/30 09:16:47;;;;;;;10.48;6.38;;;22.30;98.40;;;;;;5065936;28;20017;-73
2021/05/30 09:19:44;;;;;;;6.68;5.38;;;21.70;99.50;;;;;;5072752;28;20047;-73
2021/05/30 09:22:22;;;;;;;10.13;8.00;;;21.50;99.40;;;;;;5073702;28;20059;-73
2021/05/30 09:24:47;;;;;;;11.13;7.78;;;22.00;98.60;;;;;;5074021;28;20102;-73
2021/05/30 09:27:13;;;;;;;14.70;8.35;;;22.10;98.70;;;;;;5080212;28;20485;-73
2021/05/30 09:29:38;;;;;;;10.80;8.13;;;21.90;98.60;;;;;;5080873;28;20032;-73
2021/05/30 09:32:05;;;;;;;12.57;7.32;;;21.50;99.10;;;;;;5072331;28;20034;-73
2021/05/30 09:34:33;;;;;;;13.43;8.55;;;21.30;99.90;;;;;;5067292;28;20443;-72
2021/05/30 09:36:59;;;;;;;12.60;7.95;;;21.00;99.90;;;;;;5074253;28;20024;-73
2021/05/30 09:39:46;;;;;;;14.80;8.70;;;20.20;99.90;;;;;;5058477;28;20069;-73
2021/05/30 09:42:33;;;;;;;15.77;9.38;;;19.90;99.90;;;;;;5056219;28;20029;-72
2021/05/30 09:45:01;;;;;;;14.45;9.23;;;19.60;99.90;;;;;;5056099;28;20485;-72
2021/05/30 09:47:38;;;;;;;20.98;8.52;;;19.60;99.90;;;;;;5072040;28;20032;-73
2021/05/30 09:50:06;;;;;;;11.32;7.60;;;19.90;99.90;;;;;;5069353;28;20051;-72
2021/05/30 09:52:49;;;;;;;11.48;9.20;;;19.90;99.90;;;;;;5069641;28;20473;-72
2021/05/30 09:55:23;;;;;;;16.98;9.45;;;20.60;99.90;;;;;;5067196;28;20055;-73
2021/05/30 09:58:15;;;;;;;17.08;8.73;;;20.80;99.90;;;;;;5074362;28;20024;-74
2021/05/30 10:00:56;;;;;;;12.93;9.32;;;20.60;99.90;;;;;;5055959;28;20469;-73
2021/05/30 10:03:22;;;;;;;12.60;9.00;;;20.50;99.90;;;;;;5054523;28;20032;-73
2021/05/30 10:05:48;;;;;;;15.57;8.43;;;20.80;99.90;;;;;;5069259;28;20032;-73
2021/05/30 10:08:15;;;;;;;11.00;7.38;;;21.20;99.90;;;;;;5074495;28;20559;-73
2021/05/30 10:10:41;;;;;;;14.82;8.15;;;21.30;99.40;;;;;;5072671;28;20081;-73
2021/05/30 10:13:07;;;;;;;10.75;7.72;;;21.50;98.50;;;;;;5075504;28;20020;-74
2021/05/30 10:15:33;;;;;;;18.05;6.97;;;21.60;98.50;;;;;;5075133;28;20056;-73
2021/05/30 10:18:11;;;;;;;12.57;8.27;;;22.00;97.80;;;;;;5072911;28;20029;-74
2021/05/30 10:20:39;;;;;;;11.02;6.88;;;22.30;97.60;;;;;;5076019;28;20036;-73
2021/05/30 10:23:07;;;;;;;9.45;7.10;;;22.70;98.00;;;;;;5060549;28;20124;-73
2021/05/30 10:25:35;;;;;;;9.45;6.90;;;22.70;97.30;;;;;;5073568;28;20496;-73
2021/05/30 10:28:16;;;;;;;13.55;7.65;;;22.70;96.70;;;;;;5073905;28;20086;-74
2021/05/30 10:30:51;;;;;;;8.70;6.93;;;23.20;96.20;;;;;;5054487;28;20040;-74
2021/05/30 10:33:24;;;;;;;8.65;6.43;;;23.50;96.20;;;;;;5075011;28;20032;-74
2021/05/30 10:35:53;;;;;;;11.88;7.82;;;23.00;96.50;;;;;;5063906;28;20055;-73
2021/05/30 10:38:42;;;;;;;11.02;6.85;;;23.80;94.50;;;;;;5073798;28;20488;-74
2021/05/30 10:41:16;;;;;;;13.82;6.55;;;24.10;94.80;;;;;;5075078;28;20021;-74
2021/05/30 10:43:43;;;;;;;14.45;8.00;;;24.10;94.60;;;;;;5072860;28;20035;-73
2021/05/30 10:46:10;;;;;;;12.10;8.05;;;23.30;94.70;;;;;;5074807;28;20031;-73
2021/05/30 10:48:37;;;;;;;9.33;6.53;;;22.50;95.20;;;;;;5071256;28;20031;-73
2021/05/30 10:53:46;;;;;;;12.88;7.15;;;22.40;95.50;;;;;;5070585;28;20033;-73
2021/05/30 10:56:29;;;;;;;8.27;6.55;;;22.60;95.90;;;;;;5075497;28;20051;-74
2021/05/30 10:59:04;;;;;;;9.52;6.35;;;22.70;95.50;;;;;;5073910;28;20033;-73
2021/05/30 11:01:38;;;;;;;8.48;6.88;;;22.40;95.40;;;;;;5072566;28;20083;-73
2021/05/30 11:04:28;;;;;;;9.52;6.70;;;22.20;95.30;;;;;;5072380;28;20047;-75
2021/05/30 11:07:32;;;;;;;13.30;7.15;;;22.10;94.90;;;;;;5066706;28;20474;-73
2021/05/30 11:09:58;;;;;;;13.55;7.65;;;22.10;94.80;;;;;;5074517;28;20035;-73
2021/05/30 11:12:29;;;;;;;9.23;7.05;;;22.10;94.70;;;;;;5074213;28;20537;-72
2021/05/30 11:17:52;;;;;;;8.75;6.65;;;21.90;96.40;;;;;;5073950;28;20037;-73
2021/05/30 11:20:25;;;;;;;12.68;7.40;;;22.10;95.90;;;;;;5073245;28;20055;-73
2021/05/30 11:22:59;;;;;;;10.20;6.53;;;22.20;94.20;;;;;;5069636;28;20110;-73
2021/05/30 11:25:31;;;;;;;8.07;5.65;;;22.10;94.50;;;;;;5066535;28;20045;-74
2021/05/30 11:27:59;;;;;;;9.10;5.63;;;22.10;95.80;;;;;;5068312;28;20027;-73
2021/05/30 11:30:43;;;;;;;11.77;6.50;;;22.20;95.60;;;;;;5071541;28;20037;-73
2021/05/30 11:33:31;;;;;;;10.70;6.80;;;22.20;94.40;;;;;;5060628;28;20025;-73
2021/05/30 11:36:01;;;;;;;8.52;5.22;;;22.40;94.90;;;;;;5067744;28;20082;-73
2021/05/30 11:38:32;;;;;;;9.07;5.22;;;22.30;94.80;;;;;;5066731;28;20017;-74
2021/05/30 11:41:08;;;;;;;8.82;5.80;;;22.20;94.80;;;;;;5069478;28;20025;-76
2021/05/30 11:43:34;;;;;;;9.98;5.47;;;22.60;94.10;;;;;;5062245;28;20043;-75
2021/05/30 11:46:12;;;;;;;6.28;4.78;;;22.80;93.80;;;;;;5062845;28;20488;-73
2021/05/30 11:48:40;;;;;;;7.18;5.40;;;22.70;93.50;;;;;;5067802;28;20032;-74
2021/05/30 11:51:06;;;;;;;6.53;5.20;;;22.50;94.00;;;;;;5069603;28;20020;-74
2021/05/30 11:53:35;;;;;;;5.60;4.55;;;22.40;94.00;;;;;;5071208;28;20017;-74
2021/05/30 11:56:03;;;;;;;5.60;4.15;;;22.50;94.00;;;;;;5067643;28;20388;-75
2021/05/30 11:58:29;;;;;;;5.70;4.28;;;22.70;94.00;;;;;;5078770;28;20077;-73
2021/05/30 12:01:03;;;;;;;8.50;4.03;;;22.90;92.60;;;;;;5071104;28;20028;-73
2021/05/30 12:03:29;;;;;;;5.70;4.22;;;22.90;94.10;;;;;;5061481;28;20063;-73
2021/05/30 12:05:59;;;;;;;5.78;4.20;;;22.80;93.90;;;;;;5072963;28;20029;-73
2021/05/30 12:08:26;;;;;;;3.60;3.20;;;23.10;93.90;;;;;;5072877;28;20056;-74
2021/05/30 12:10:57;;;;;;;12.00;6.43;;;23.40;92.70;;;;;;5063417;28;20033;-74
2021/05/30 12:13:40;;;;;;;14.63;7.00;;;23.60;95.60;;;;;;5068615;28;20025;-74
2021/05/30 12:16:18;;;;;;;17.23;7.28;;;23.50;96.00;;;;;;5072175;28;20028;-73
2021/05/30 12:18:55;;;;;;;10.65;6.88;;;23.10;97.10;;;;;;5071918;28;20040;-74
2021/05/30 12:21:22;;;;;;;;;;;22.90;97.80;;;;;;5068512;28;20115;-73
2021/05/30 12:23:48;;;;;;;11.38;6.40;;;22.70;98.00;;;;;;5073513;28;19916;-72
2021/05/30 12:26:14;;;;;;;10.60;6.78;;;22.50;99.40;;;;;;5063607;28;20025;-72
2021/05/30 12:28:42;;;;;;;8.48;5.82;;;22.50;99.90;;;;;;5077771;28;20487;-73
2021/05/30 12:31:20;;;;;;;13.13;7.28;;;22.30;98.80;;;;;;5059941;28;20045;-73
2021/05/30 12:34:01;;;;;;;12.02;7.05;;;22.20;99.10;;;;;;5068031;28;20489;-73
2021/05/30 12:36:43;;;;;;;13.23;6.38;;;22.00;99.70;;;;;;5071080;28;20025;-73
2021/05/30 12:39:21;;;;;;;12.38;7.00;;;21.90;99.90;;;;;;5073196;28;20029;-72
2021/05/30 12:41:57;;;;;;;8.65;6.07;;;21.70;99.90;;;;;;5071535;28;20480;-73
2021/05/30 12:44:31;;;;;;;12.40;6.70;;;21.60;99.90;;;;;;5071970;28;20028;-72
2021/05/30 12:47:06;;;;;;;8.35;5.63;;;21.80;99.90;;;;;;5070381;28;20021;-72
2021/05/30 12:49:32;;;;;;;10.18;5.90;;;21.80;99.20;;;;;;5070406;28;20380;-73
2021/05/30 12:52:09;;;;;;;11.18;6.43;;;21.80;99.70;;;;;;5071624;28;20035;-72